createdAt,value
2023-03-13T00:01:13.713Z,18.35
2023-03-13T00:03:43.156Z,16.60
2023-03-13T00:06:11.678Z,18.23
2023-03-13T00:08:39.835Z,16.55
2023-03-13T00:11:10.513Z,18.75
2023-03-13T00:13:38.849Z,14.93
2023-03-13T00:16:08.692Z,20.43
2023-03-13T00:18:37.164Z,16.67
2023-03-13T00:21:08.117Z,18.33
2023-03-13T00:23:37.919Z,18.27
2023-03-13T00:26:07.424Z,17.53
2023-03-13T00:28:37.139Z,15.93
2023-03-13T00:31:06.286Z,16.97
2023-03-13T00:33:34.956Z,16.40
2023-03-13T00:36:04.876Z,18.73
2023-03-13T00:38:35.562Z,18.67
2023-03-13T00:41:05.479Z,19.53
2023-03-13T00:43:34.352Z,20.02
2023-03-13T00:46:02.877Z,21.27
2023-03-13T00:48:31.845Z,18.38
2023-03-13T00:51:01.618Z,16.40
2023-03-13T00:53:29.747Z,14.45
2023-03-13T00:56:01.208Z,16.10
2023-03-13T00:58:30.963Z,15.88
2023-03-13T01:00:59.038Z,16.48
2023-03-13T02:00:57.142Z,17.60
2023-03-13T02:03:28.862Z,21.02
2023-03-13T02:05:58.808Z,20.23
2023-03-13T02:08:32.509Z,18.52
2023-03-13T02:11:11.504Z,17.33
2023-03-13T02:13:39.568Z,19.15
2023-03-13T02:16:09.477Z,19.70
2023-03-13T02:18:39.197Z,18.98
2023-03-13T02:21:12.592Z,21.15
2023-03-13T02:23:49.354Z,22.80
2023-03-13T02:26:18.764Z,19.83
2023-03-13T02:28:47.123Z,20.38
2023-03-13T02:31:17.227Z,21.38
2023-03-13T02:33:45.763Z,19.23
2023-03-13T02:36:18.529Z,19.33
2023-03-13T02:38:52.798Z,19.40
2023-03-13T02:41:23.966Z,17.45
2023-03-13T02:43:52.323Z,18.98
2023-03-13T02:46:22.015Z,17.48
2023-03-13T02:48:55.917Z,15.82
2023-03-13T02:51:31.879Z,18.10
2023-03-13T02:54:04.710Z,19.50
2023-03-13T02:56:37.423Z,20.27
2023-03-13T02:59:07.117Z,22.30
2023-03-13T03:01:36.787Z,18.98
2023-03-13T03:04:04.959Z,16.42
2023-03-13T03:06:33.581Z,23.05
2023-03-13T03:09:04.501Z,19.00
2023-03-13T03:11:38.517Z,17.75
2023-03-13T03:14:11.306Z,18.70
2023-03-13T03:16:43.845Z,22.77
2023-03-13T03:19:11.996Z,18.90
2023-03-13T03:21:40.136Z,20.15
2023-03-13T03:24:08.660Z,19.60
2023-03-13T03:26:39.164Z,18.38
2023-03-13T03:29:13.276Z,19.48
2023-03-13T03:31:42.190Z,19.10
2023-03-13T03:34:10.732Z,20.60
2023-03-13T03:36:38.758Z,17.63
2023-03-13T03:39:07.238Z,18.70
2023-03-13T03:41:37.444Z,18.08
2023-03-13T03:44:07.908Z,20.00
2023-03-13T03:46:51.624Z,16.25
2023-03-13T03:49:20.109Z,17.92
2023-03-13T03:51:49.479Z,16.83
2023-03-13T03:54:21.913Z,17.98
2023-03-13T03:56:50.022Z,17.15
2023-03-13T03:59:19.574Z,16.65
2023-03-13T04:01:49.351Z,19.52
2023-03-13T04:04:22.488Z,19.05
2023-03-13T04:06:54.906Z,17.45
2023-03-13T04:09:23.004Z,17.55
2023-03-13T04:11:51.291Z,22.05
2023-03-13T04:14:20.706Z,18.85
2023-03-13T04:16:48.942Z,18.50
2023-03-13T04:19:17.167Z,17.80
2023-03-13T04:21:45.117Z,20.40
2023-03-13T04:24:16.472Z,20.75
2023-03-13T04:26:45.701Z,21.35
2023-03-13T04:29:14.592Z,16.88
2023-03-13T04:31:52.622Z,19.02
2023-03-13T04:34:20.660Z,17.60
2023-03-13T04:37:14.831Z,19.98
2023-03-13T04:40:13.669Z,17.33
2023-03-13T04:43:00.295Z,16.80
2023-03-13T04:46:00.197Z,19.05
2023-03-13T04:48:48.323Z,19.15
2023-03-13T04:51:42.982Z,19.90
2023-03-13T04:54:38.043Z,18.98
2023-03-13T04:57:22.609Z,17.38
2023-03-13T05:00:29.083Z,19.65
2023-03-13T05:03:26.072Z,19.52
2023-03-13T05:06:30.715Z,17.85
2023-03-13T05:09:16.242Z,19.63
2023-03-13T05:12:21.363Z,18.10
2023-03-13T05:15:11.242Z,18.90
2023-03-13T05:18:03.714Z,23.00
2023-03-13T05:20:54.670Z,23.63
2023-03-13T05:23:54.887Z,21.52
2023-03-13T05:26:39.808Z,19.52
2023-03-13T05:29:42.936Z,19.98
2023-03-13T05:32:37.262Z,19.10
2023-03-13T05:35:22.265Z,19.65
2023-03-13T05:38:10.308Z,19.50
2023-03-13T05:41:04.565Z,18.83
2023-03-13T05:44:04.563Z,19.90
2023-03-13T05:46:39.842Z,16.98
2023-03-13T05:49:26.764Z,18.88
2023-03-13T05:52:09.281Z,20.30
2023-03-13T05:54:57.568Z,21.00
2023-03-13T05:57:44.936Z,16.67
2023-03-13T06:00:22.987Z,18.15
2023-03-13T06:03:16.786Z,19.40
2023-03-13T06:05:47.332Z,17.85
2023-03-13T06:08:33.323Z,16.27
2023-03-13T06:11:03.325Z,19.40
2023-03-13T06:13:35.241Z,16.75
2023-03-13T06:16:10.983Z,17.40
2023-03-13T06:18:46.760Z,17.63
2023-03-13T06:21:14.753Z,15.93
2023-03-13T06:23:43.241Z,20.45
2023-03-13T06:26:11.564Z,19.83
2023-03-13T06:28:41.250Z,15.75
2023-03-13T06:31:09.693Z,19.48
2023-03-13T06:33:37.595Z,18.58
2023-03-13T06:36:06.454Z,15.52
2023-03-13T06:38:35.164Z,17.88
2023-03-13T06:41:03.232Z,15.65
2023-03-13T06:43:31.487Z,16.38
2023-03-13T06:46:04.771Z,15.18
2023-03-13T06:48:32.838Z,17.38
2023-03-13T06:51:00.845Z,18.85
2023-03-13T06:53:28.825Z,17.42
2023-03-13T06:55:56.969Z,17.50
2023-03-13T06:58:32.197Z,18.10
2023-03-13T07:01:07.047Z,16.23
2023-03-13T07:03:35.249Z,18.20
2023-03-13T07:06:03.775Z,18.15
2023-03-13T07:08:31.805Z,15.57
2023-03-13T07:11:01.933Z,16.95
2023-03-13T07:13:30.394Z,15.85
2023-03-13T07:16:04.377Z,16.43
2023-03-13T07:18:33.210Z,15.52
2023-03-13T07:21:04.972Z,14.70
2023-03-13T07:23:34.730Z,15.30
2023-03-13T07:26:05.216Z,16.57
2023-03-13T07:28:36.329Z,13.25
2023-03-13T07:31:08.176Z,13.90
2023-03-13T07:33:36.357Z,15.17
2023-03-13T07:36:05.056Z,14.20
2023-03-13T07:38:33.071Z,13.37
2023-03-13T07:41:01.277Z,14.40
2023-03-13T07:43:29.443Z,11.27
2023-03-13T07:45:59.448Z,10.80
2023-03-13T07:48:31.338Z,12.67
2023-03-13T07:51:00.291Z,11.70
2023-03-13T07:53:29.207Z,14.40
2023-03-13T07:55:59.011Z,13.30
2023-03-13T07:58:29.569Z,11.97
2023-03-13T08:00:57.728Z,13.80
2023-03-13T08:03:26.810Z,9.93
2023-03-13T08:06:03.864Z,11.30
2023-03-13T08:08:32.032Z,9.03
2023-03-13T08:11:03.619Z,13.23
2023-03-13T08:13:33.349Z,9.43
2023-03-13T08:16:07.863Z,9.63
2023-03-13T08:18:36.916Z,10.83
2023-03-13T08:21:08.711Z,10.03
2023-03-13T08:23:37.338Z,9.33
2023-03-13T08:26:07.239Z,11.00
2023-03-13T08:28:35.947Z,11.53
2023-03-13T08:31:11.910Z,10.57
2023-03-13T08:33:40.715Z,10.73
2023-03-13T08:36:18.465Z,9.17
2023-03-13T08:38:47.466Z,10.47
2023-03-13T08:41:17.015Z,8.27
2023-03-13T08:43:45.349Z,10.37
2023-03-13T08:46:13.652Z,8.80
2023-03-13T08:48:42.106Z,9.13
2023-03-13T08:51:12.696Z,10.10
2023-03-13T08:53:43.655Z,10.47
2023-03-13T08:56:13.311Z,10.20
2023-03-13T08:58:41.707Z,9.93
2023-03-13T09:01:11.314Z,9.33
2023-03-13T09:03:40.125Z,10.53
2023-03-13T09:06:09.096Z,13.40
2023-03-13T09:08:38.084Z,9.37
2023-03-13T09:11:09.628Z,10.33
2023-03-13T09:13:43.402Z,9.63
2023-03-13T09:16:14.511Z,8.23
2023-03-13T09:18:43.412Z,8.20
2023-03-13T09:21:14.530Z,8.40
2023-03-13T09:23:42.607Z,7.90
2023-03-13T09:26:12.385Z,8.23
2023-03-13T09:28:42.035Z,7.73
2023-03-13T09:31:11.625Z,7.67
2023-03-13T09:33:40.512Z,9.77
2023-03-13T09:36:10.027Z,7.63
2023-03-13T09:38:38.572Z,7.10
2023-03-13T09:41:21.641Z,10.10
2023-03-13T09:43:54.516Z,7.03
2023-03-13T09:46:27.376Z,7.43
2023-03-13T09:49:00.801Z,6.90
2023-03-13T09:51:32.740Z,5.73
2023-03-13T09:54:05.959Z,6.37
2023-03-13T09:56:40.328Z,5.70
2023-03-13T09:59:17.653Z,6.93
2023-03-13T10:01:47.646Z,6.20
2023-03-13T10:04:29.508Z,6.33
2023-03-13T10:06:58.268Z,5.93
2023-03-13T10:09:30.926Z,6.20
2023-03-13T10:12:08.100Z,5.77
2023-03-13T10:14:42.882Z,8.77
2023-03-13T10:17:34.083Z,11.13
2023-03-13T10:20:09.152Z,6.20
2023-03-13T10:22:38.241Z,5.33
2023-03-13T10:25:10.435Z,6.20
2023-03-13T10:27:46.300Z,5.77
2023-03-13T10:30:25.074Z,5.67
2023-03-13T10:32:55.868Z,5.43
2023-03-13T10:35:26.310Z,8.80
2023-03-13T10:38:05.675Z,4.53
2023-03-13T10:40:34.005Z,5.37
2023-03-13T10:43:05.970Z,5.83
2023-03-13T10:45:36.585Z,7.93
2023-03-13T10:48:12.566Z,4.53
2023-03-13T10:50:44.581Z,4.50
2023-03-13T10:53:24.301Z,4.17
2023-03-13T10:55:55.558Z,4.47
2023-03-13T10:58:30.958Z,4.00
2023-03-13T11:01:17.153Z,3.90
2023-03-13T11:03:45.945Z,3.90
2023-03-13T11:06:31.829Z,4.37
2023-03-13T11:09:04.660Z,4.10
2023-03-13T11:11:44.107Z,4.20
2023-03-13T11:14:18.067Z,4.20
2023-03-13T11:16:51.300Z,3.97
2023-03-13T11:19:50.618Z,5.07
2023-03-13T11:22:49.703Z,4.57
2023-03-13T11:25:24.052Z,4.73
2023-03-13T11:28:15.766Z,4.40
2023-03-13T11:31:04.391Z,5.13
2023-03-13T11:33:40.455Z,4.20
2023-03-13T11:36:16.282Z,4.60
2023-03-13T11:38:47.092Z,5.57
2023-03-13T11:41:29.017Z,5.50
2023-03-13T11:44:13.875Z,4.87
2023-03-13T11:46:54.288Z,5.30
2023-03-13T11:49:40.498Z,10.20
2023-03-13T11:52:25.587Z,29.57
2023-03-13T11:55:26.852Z,18.10
2023-03-13T11:58:14.470Z,10.00
2023-03-13T12:00:48.438Z,12.57
2023-03-13T12:03:21.375Z,24.60
2023-03-13T12:05:53.843Z,5.87
2023-03-13T12:08:27.790Z,5.30
2023-03-13T12:11:07.526Z,4.83
2023-03-13T12:13:39.969Z,6.67
2023-03-13T12:16:14.361Z,5.50
2023-03-13T12:18:46.890Z,4.60
2023-03-13T12:21:19.916Z,5.07
2023-03-13T12:23:56.861Z,5.07
2023-03-13T12:26:36.204Z,4.27
2023-03-13T12:29:13.479Z,5.23
2023-03-13T12:31:46.204Z,3.07
2023-03-13T12:34:21.224Z,3.73
2023-03-13T12:36:53.765Z,3.37
2023-03-13T12:39:32.557Z,3.63
2023-03-13T12:42:14.631Z,4.07
2023-03-13T12:44:42.883Z,3.60
2023-03-13T12:47:17.659Z,4.23
2023-03-13T12:50:20.712Z,4.47
2023-03-13T12:53:25.000Z,4.63
2023-03-13T12:56:23.645Z,5.07
2023-03-13T12:58:55.587Z,3.53
2023-03-13T13:01:32.963Z,4.63
2023-03-13T13:04:03.649Z,4.40
2023-03-13T13:07:01.864Z,3.90
2023-03-13T13:09:31.448Z,3.90
2023-03-13T13:12:02.566Z,4.57
2023-03-13T13:14:58.069Z,3.83
2023-03-13T13:17:56.128Z,4.77
2023-03-13T13:20:34.323Z,3.13
2023-03-13T13:23:39.412Z,3.30
2023-03-13T13:26:47.406Z,4.20
2023-03-13T13:29:55.253Z,3.23
2023-03-13T13:32:45.590Z,3.20
2023-03-13T13:35:31.714Z,3.97
2023-03-13T13:38:37.073Z,3.50
2023-03-13T13:41:22.084Z,3.63
2023-03-13T13:44:11.191Z,3.30
2023-03-13T13:46:45.977Z,3.93
2023-03-13T13:49:19.041Z,3.77
2023-03-13T13:52:41.178Z,3.87
2023-03-13T13:55:42.928Z,4.07
2023-03-13T13:58:18.872Z,3.50
2023-03-13T14:00:53.723Z,4.30
2023-03-13T14:03:24.152Z,2.90
2023-03-13T14:05:57.790Z,2.93
2023-03-13T14:08:30.516Z,3.10
2023-03-13T14:11:10.990Z,4.70
2023-03-13T14:13:39.158Z,3.43
2023-03-13T14:16:25.202Z,3.83
2023-03-13T14:18:54.101Z,3.63
2023-03-13T14:21:25.017Z,3.50
2023-03-13T14:23:53.483Z,4.30
2023-03-13T14:26:22.793Z,4.20
2023-03-13T14:28:52.278Z,5.60
2023-03-13T14:31:25.883Z,4.53
2023-03-13T14:33:54.362Z,5.73
2023-03-13T14:36:23.790Z,5.00
2023-03-13T14:38:56.439Z,4.67
2023-03-13T14:41:27.964Z,10.13
2023-03-13T14:43:56.522Z,6.33
2023-03-13T14:46:31.231Z,4.70
2023-03-13T14:49:08.007Z,4.20
2023-03-13T14:51:39.927Z,5.00
2023-03-13T14:54:24.595Z,5.07
2023-03-13T14:57:03.961Z,6.33
2023-03-13T14:59:32.140Z,7.90
2023-03-13T15:02:01.576Z,3.20
2023-03-13T15:04:50.265Z,9.63
2023-03-13T15:07:19.771Z,9.13
2023-03-13T15:09:48.769Z,6.80
2023-03-13T15:12:18.936Z,5.23
2023-03-13T15:14:48.445Z,5.50
2023-03-13T15:17:19.604Z,3.60
2023-03-13T15:19:52.660Z,3.90
2023-03-13T15:22:27.932Z,3.80
2023-03-13T15:25:05.689Z,4.27
2023-03-13T15:27:34.680Z,3.50
2023-03-13T15:30:02.643Z,3.33
2023-03-13T15:32:33.758Z,3.80
2023-03-13T15:35:03.407Z,4.03
2023-03-13T15:37:33.510Z,3.90
2023-03-13T15:40:02.873Z,4.07
2023-03-13T15:42:30.890Z,3.40
2023-03-13T15:44:58.893Z,3.73
2023-03-13T15:47:27.520Z,4.40
2023-03-13T15:49:55.627Z,3.80
2023-03-13T15:52:23.636Z,3.90
2023-03-13T15:54:53.849Z,3.70
2023-03-13T15:57:24.988Z,3.30
2023-03-13T15:59:54.229Z,3.07
2023-03-13T16:02:24.340Z,2.97
2023-03-13T16:04:52.973Z,2.63
2023-03-13T16:07:22.814Z,3.33
2023-03-13T16:09:53.576Z,4.03
2023-03-13T16:12:21.559Z,19.23
2023-03-13T16:14:49.668Z,5.37
2023-03-13T16:17:19.936Z,3.50
2023-03-13T16:19:49.576Z,4.80
2023-03-13T16:22:17.550Z,9.20
2023-03-13T16:24:45.463Z,9.83
2023-03-13T16:27:18.053Z,6.40
2023-03-13T16:29:46.744Z,7.33
2023-03-13T16:32:18.624Z,3.73
2023-03-13T16:34:46.655Z,2.73
2023-03-13T16:37:16.500Z,3.80
2023-03-13T16:39:45.439Z,2.80
2023-03-13T16:42:14.980Z,2.30
2023-03-13T16:44:43.004Z,3.37
2023-03-13T16:47:20.073Z,3.40
2023-03-13T16:49:48.082Z,3.20
2023-03-13T16:52:16.938Z,2.87
2023-03-13T16:54:45.486Z,3.90
2023-03-13T16:57:17.610Z,3.13
2023-03-13T16:59:46.758Z,2.50
2023-03-13T17:02:16.493Z,2.80
2023-03-13T17:04:45.167Z,2.03
2023-03-13T17:07:18.990Z,1.83
2023-03-13T17:09:47.533Z,3.17
2023-03-13T17:12:16.923Z,2.70
2023-03-13T17:14:45.002Z,2.33
2023-03-13T17:17:15.709Z,2.60
2023-03-13T17:19:43.913Z,2.27
2023-03-13T17:22:14.093Z,3.97
2023-03-13T17:24:42.371Z,2.40
2023-03-13T17:27:13.792Z,2.90
2023-03-13T17:29:43.904Z,2.50
2023-03-13T17:32:12.397Z,2.80
2023-03-13T17:34:40.831Z,2.67
2023-03-13T17:37:16.633Z,4.00
2023-03-13T17:39:44.717Z,2.53
2023-03-13T17:42:13.129Z,3.53
2023-03-13T17:44:42.476Z,2.83
2023-03-13T17:47:14.528Z,3.00
2023-03-13T17:49:42.947Z,3.63
2023-03-13T17:52:15.063Z,3.50
2023-03-13T17:54:43.518Z,2.70
2023-03-13T17:57:16.271Z,3.30
2023-03-13T17:59:46.074Z,3.10
2023-03-13T18:02:15.826Z,2.80
2023-03-13T18:04:45.730Z,3.40
2023-03-13T18:07:23.324Z,4.30
2023-03-13T18:09:51.479Z,3.10
2023-03-13T18:12:20.232Z,3.10
2023-03-13T18:14:49.560Z,2.97
2023-03-13T18:17:20.411Z,2.57
2023-03-13T18:19:48.982Z,3.30
2023-03-13T18:22:21.512Z,3.27
2023-03-13T18:24:49.514Z,5.10
2023-03-13T18:27:19.099Z,3.70
2023-03-13T18:29:50.658Z,4.17
2023-03-13T18:32:19.992Z,3.53
2023-03-13T18:34:48.173Z,2.90
2023-03-13T18:37:22.482Z,3.40
2023-03-13T18:39:51.179Z,3.43
2023-03-13T18:42:19.383Z,3.30
2023-03-13T18:44:48.970Z,3.63
2023-03-13T18:47:18.788Z,2.90
2023-03-13T18:49:48.735Z,4.07
2023-03-13T18:52:17.312Z,3.30
2023-03-13T18:54:45.867Z,3.40
2023-03-13T18:57:15.942Z,3.13
2023-03-13T18:59:44.190Z,2.80
2023-03-13T19:02:16.018Z,3.10
2023-03-13T19:04:44.717Z,2.90
2023-03-13T19:07:17.724Z,3.23
2023-03-13T19:09:47.285Z,2.33
2023-03-13T19:12:16.688Z,3.17
2023-03-13T19:14:44.868Z,3.30
2023-03-13T19:17:23.830Z,2.50
2023-03-13T19:19:56.975Z,3.30
2023-03-13T19:22:25.368Z,3.00
2023-03-13T19:24:53.436Z,3.20
2023-03-13T19:27:21.465Z,3.10
2023-03-13T19:29:50.704Z,2.67
2023-03-13T19:32:20.963Z,3.37
2023-03-13T19:34:48.955Z,3.20
2023-03-13T19:37:18.921Z,3.57
2023-03-13T19:39:46.937Z,3.73
2023-03-13T19:42:14.832Z,3.40
2023-03-13T19:44:42.875Z,4.47
2023-03-13T19:47:15.441Z,3.60
2023-03-13T19:49:45.503Z,3.87
2023-03-13T19:52:13.503Z,3.63
2023-03-13T19:54:41.443Z,4.97
2023-03-13T19:57:11.850Z,3.10
2023-03-13T19:59:40.072Z,4.27
2023-03-13T20:02:09.184Z,3.70
2023-03-13T20:04:37.353Z,4.77
2023-03-13T20:07:08.173Z,3.90
2023-03-13T20:09:36.759Z,4.33
2023-03-13T20:12:05.995Z,4.73
2023-03-13T20:14:34.220Z,4.57
2023-03-13T20:17:03.274Z,5.80
2023-03-13T20:19:31.742Z,4.33
2023-03-13T20:22:03.564Z,6.03
2023-03-13T20:24:34.260Z,5.10
2023-03-13T20:27:02.934Z,5.60
2023-03-13T20:29:31.726Z,7.60
2023-03-13T20:32:01.276Z,6.03
2023-03-13T20:34:30.239Z,5.90
2023-03-13T20:36:59.953Z,7.57
2023-03-13T20:39:29.484Z,7.73
2023-03-13T20:42:02.718Z,6.43
2023-03-13T20:44:31.463Z,6.13
2023-03-13T20:46:59.525Z,5.70
2023-03-13T20:49:27.698Z,5.30
2023-03-13T20:51:55.693Z,5.10
2023-03-13T20:54:23.775Z,5.37
2023-03-13T20:56:51.688Z,5.30
2023-03-13T20:59:21.052Z,6.00
2023-03-13T21:01:49.115Z,5.20
2023-03-13T21:04:17.313Z,4.97
2023-03-13T21:06:45.420Z,5.63
2023-03-13T21:09:13.945Z,5.00
2023-03-13T21:11:42.523Z,6.07
2023-03-13T21:14:10.449Z,6.40
2023-03-13T21:16:40.799Z,7.07
2023-03-13T21:19:08.795Z,6.40
2023-03-13T21:21:37.754Z,6.27
2023-03-13T21:24:06.383Z,5.00
2023-03-13T21:26:34.643Z,6.60
2023-03-13T21:29:03.517Z,5.77
2023-03-13T21:31:31.860Z,5.27
2023-03-13T21:34:01.310Z,5.33
2023-03-13T21:36:29.274Z,6.37
2023-03-13T21:38:57.247Z,6.37
2023-03-13T21:41:25.265Z,5.23
2023-03-13T21:43:53.233Z,5.27
2023-03-13T21:46:22.572Z,6.60
2023-03-13T21:48:50.711Z,6.90
2023-03-13T21:51:19.982Z,6.13
2023-03-13T21:53:47.941Z,9.90
2023-03-13T21:56:17.353Z,6.40
2023-03-13T21:58:46.361Z,6.30
2023-03-13T22:01:15.520Z,4.53
2023-03-13T22:03:43.572Z,5.17
2023-03-13T22:06:15.398Z,4.90
2023-03-13T22:08:45.221Z,5.23
2023-03-13T22:11:13.189Z,6.53
2023-03-13T22:13:41.154Z,5.33
2023-03-13T22:16:11.362Z,4.17
2023-03-13T22:18:39.915Z,4.53
2023-03-13T22:21:08.098Z,4.27
2023-03-13T22:23:36.140Z,5.03
2023-03-13T22:26:06.643Z,4.70
2023-03-13T22:28:35.589Z,4.50
2023-03-13T22:31:04.532Z,4.50
2023-03-13T22:33:33.595Z,5.03
2023-03-13T22:36:02.222Z,4.50
2023-03-13T22:38:30.246Z,5.00
2023-03-13T22:41:00.112Z,3.73
2023-03-13T22:43:29.887Z,4.23
2023-03-13T22:45:58.866Z,6.87
2023-03-13T22:48:28.750Z,4.90
2023-03-13T22:51:01.707Z,5.83
2023-03-13T22:53:29.735Z,5.10
2023-03-13T22:55:57.753Z,5.43
2023-03-13T22:58:25.967Z,5.53
2023-03-13T23:00:55.773Z,6.33
2023-03-13T23:03:23.955Z,6.57
2023-03-13T23:05:52.140Z,6.53
2023-03-13T23:08:20.144Z,8.60
2023-03-13T23:10:48.996Z,4.70
2023-03-13T23:13:17.364Z,4.53
2023-03-13T23:15:55.623Z,4.20
2023-03-13T23:18:26.958Z,6.43
2023-03-13T23:20:55.678Z,5.20
2023-03-13T23:23:23.901Z,4.70
2023-03-13T23:25:51.981Z,5.47
2023-03-13T23:28:19.932Z,4.90
2023-03-13T23:30:47.926Z,17.90
2023-03-13T23:33:15.879Z,15.33
2023-03-13T23:35:45.286Z,7.60
2023-03-13T23:38:14.442Z,6.00
2023-03-13T23:40:42.370Z,7.10
2023-03-13T23:43:10.740Z,5.37
2023-03-13T23:45:38.786Z,5.30
2023-03-13T23:48:07.173Z,4.70
2023-03-13T23:50:35.054Z,4.73
2023-03-13T23:53:04.328Z,4.60
2023-03-13T23:55:32.286Z,4.67
2023-03-13T23:58:00.232Z,7.87
